createdAt,value
2022-09-13T00:00:00.314Z,0.43
2022-09-13T00:02:27.962Z,0.40
2022-09-13T00:04:55.583Z,0.40
2022-09-13T00:07:23.151Z,0.28
2022-09-13T00:09:50.861Z,0.30
2022-09-13T00:12:18.394Z,0.38
2022-09-13T00:14:46.383Z,0.32
2022-09-13T00:17:13.737Z,0.38
2022-09-13T00:19:41.570Z,0.70
2022-09-13T00:22:09.170Z,0.32
2022-09-13T00:24:37.507Z,0.30
2022-09-13T00:27:05.251Z,0.40
2022-09-13T00:29:33.203Z,0.50
2022-09-13T00:32:01.007Z,0.20
2022-09-13T00:34:28.546Z,0.30
2022-09-13T00:36:56.356Z,0.40
2022-09-13T00:39:23.947Z,0.20
2022-09-13T00:41:51.574Z,0.40
2022-09-13T00:44:53.268Z,0.43
2022-09-13T00:47:24.179Z,0.45
2022-09-13T00:49:56.047Z,0.20
2022-09-13T00:52:24.975Z,0.28
2022-09-13T00:54:58.900Z,0.38
2022-09-13T00:57:27.370Z,0.50
2022-09-13T01:00:09.007Z,0.30
2022-09-13T01:02:36.773Z,0.35
2022-09-13T01:05:04.613Z,0.45
2022-09-13T01:07:32.307Z,0.47
2022-09-13T01:09:59.892Z,0.30
2022-09-13T01:12:34.061Z,0.68
2022-09-13T01:15:04.336Z,0.50
2022-09-13T01:17:33.504Z,0.35
2022-09-13T01:20:01.904Z,0.82
2022-09-13T01:22:32.467Z,0.60
2022-09-13T01:25:00.049Z,0.45
2022-09-13T01:27:33.979Z,0.25
2022-09-13T01:30:01.566Z,0.52
2022-09-13T01:32:36.396Z,0.20
2022-09-13T01:35:22.896Z,0.30
2022-09-13T01:38:08.782Z,0.20
2022-09-13T01:41:06.172Z,0.75
2022-09-13T01:44:06.618Z,0.47
2022-09-13T01:46:36.682Z,0.50
2022-09-13T01:49:31.806Z,0.30
2022-09-13T01:52:07.506Z,0.30
2022-09-13T01:54:44.096Z,0.40
2022-09-13T01:57:28.890Z,0.20
2022-09-13T02:00:17.041Z,0.43
2022-09-13T02:03:04.300Z,0.20
2022-09-13T02:05:38.727Z,0.30
2022-09-13T02:08:46.327Z,0.50
2022-09-13T02:11:22.452Z,0.47
2022-09-13T02:13:50.156Z,0.40
2022-09-13T02:16:35.299Z,0.60
2022-09-13T02:19:26.546Z,0.30
2022-09-13T02:21:59.335Z,0.40
2022-09-13T02:24:36.129Z,0.30
2022-09-13T02:27:12.035Z,0.40
2022-09-13T02:29:42.625Z,0.50
2022-09-13T02:32:36.048Z,0.40
2022-09-13T02:35:14.138Z,0.57
2022-09-13T02:37:45.728Z,0.77
2022-09-13T02:40:22.849Z,0.75
2022-09-13T02:43:15.006Z,0.75
2022-09-13T02:46:14.375Z,0.50
2022-09-13T02:49:07.304Z,0.30
2022-09-13T02:51:50.913Z,0.60
2022-09-13T02:54:28.443Z,0.30
2022-09-13T02:57:40.379Z,0.30
2022-09-13T03:00:08.543Z,0.50
2022-09-13T03:02:36.698Z,0.30
2022-09-13T03:05:04.964Z,0.70
2022-09-13T03:07:32.687Z,0.70
2022-09-13T03:10:05.985Z,0.52
2022-09-13T03:13:06.071Z,0.50
2022-09-13T03:16:12.005Z,0.70
2022-09-13T03:19:07.534Z,0.30
2022-09-13T03:21:43.783Z,0.60
2022-09-13T03:27:09.261Z,0.60
2022-09-13T03:29:56.325Z,0.10
2022-09-13T03:33:03.577Z,0.25
2022-09-13T03:38:11.655Z,0.40
2022-09-13T03:40:53.285Z,0.20
2022-09-13T03:43:27.608Z,0.40
2022-09-13T03:46:01.544Z,0.40
2022-09-13T03:48:29.647Z,0.30
2022-09-13T03:50:57.373Z,0.20
2022-09-13T03:53:28.506Z,0.32
2022-09-13T03:55:56.028Z,0.57
2022-09-13T03:58:23.813Z,0.40
2022-09-13T04:00:53.332Z,0.40
2022-09-13T04:03:21.104Z,0.40
2022-09-13T04:05:48.783Z,0.40
2022-09-13T04:08:16.406Z,0.40
2022-09-13T04:10:44.107Z,0.82
2022-09-13T04:13:11.721Z,0.20
2022-09-13T04:15:39.343Z,0.35
2022-09-13T04:18:06.997Z,1.00
2022-09-13T04:20:35.957Z,0.60
2022-09-13T04:23:03.697Z,0.35
2022-09-13T04:25:31.302Z,0.47
2022-09-13T04:28:02.168Z,1.15
2022-09-13T04:30:30.364Z,1.27
2022-09-13T04:32:59.669Z,0.98
2022-09-13T04:35:30.161Z,2.38
2022-09-13T04:37:58.323Z,0.80
2022-09-13T04:40:26.122Z,0.70
2022-09-13T04:42:53.826Z,1.67
2022-09-13T04:45:21.625Z,1.45
2022-09-13T04:47:56.569Z,1.40
2022-09-13T04:50:25.797Z,0.75
2022-09-13T04:52:55.735Z,1.00
2022-09-13T04:55:26.151Z,3.97
2022-09-13T04:57:54.906Z,6.22
2022-09-13T05:00:22.696Z,3.00
2022-09-13T05:02:50.450Z,3.20
2022-09-13T05:05:17.765Z,2.20
2022-09-13T05:07:45.542Z,1.90
2022-09-13T05:10:16.391Z,2.60
2022-09-13T05:12:47.340Z,1.73
2022-09-13T05:15:14.963Z,1.38
2022-09-13T05:17:43.332Z,3.53
2022-09-13T05:20:11.376Z,1.27
2022-09-13T05:22:38.963Z,1.52
2022-09-13T05:25:06.982Z,1.42
2022-09-13T05:27:34.561Z,0.93
2022-09-13T05:30:01.975Z,2.78
2022-09-13T05:32:31.037Z,4.15
2022-09-13T05:34:58.551Z,3.42
2022-09-13T05:37:26.257Z,4.35
2022-09-13T05:40:12.719Z,2.60
2022-09-13T05:42:40.555Z,3.53
2022-09-13T05:45:08.855Z,4.20
2022-09-13T05:47:36.419Z,3.05
2022-09-13T05:50:22.275Z,2.45
2022-09-13T05:52:58.770Z,1.80
2022-09-13T05:55:27.630Z,3.85
2022-09-13T05:57:54.921Z,3.33
2022-09-13T06:00:22.404Z,3.75
2022-09-13T06:02:50.231Z,3.88
2022-09-13T06:05:17.889Z,2.97
2022-09-13T06:07:45.493Z,3.15
2022-09-13T06:10:13.319Z,3.53
2022-09-13T06:12:40.881Z,2.90
2022-09-13T06:15:10.566Z,2.95
2022-09-13T06:17:38.147Z,3.28
2022-09-13T06:20:08.499Z,3.53
2022-09-13T06:22:36.277Z,7.03
2022-09-13T06:25:06.200Z,4.13
2022-09-13T06:27:33.455Z,4.00
2022-09-13T06:30:01.058Z,5.15
2022-09-13T06:32:28.468Z,5.47
2022-09-13T06:34:56.128Z,7.55
2022-09-13T06:37:24.113Z,7.40
2022-09-13T06:39:51.733Z,5.45
2022-09-13T06:42:19.429Z,5.75
2022-09-13T06:44:48.561Z,6.85
2022-09-13T06:47:16.269Z,6.30
2022-09-13T06:49:43.497Z,13.52
2022-09-13T06:52:11.267Z,3.85
2022-09-13T06:54:39.568Z,5.93
2022-09-13T06:57:07.179Z,4.15
2022-09-13T06:59:35.116Z,6.32
2022-09-13T07:02:02.738Z,2.65
2022-09-13T07:04:32.074Z,4.72
2022-09-13T07:07:00.208Z,3.95
2022-09-13T07:09:27.960Z,3.78
2022-09-13T07:11:56.493Z,3.13
2022-09-13T07:14:26.479Z,2.88
2022-09-13T07:16:54.250Z,4.15
2022-09-13T07:19:27.072Z,2.53
2022-09-13T07:21:56.301Z,6.30
2022-09-13T07:24:24.527Z,3.42
2022-09-13T07:26:51.875Z,2.38
2022-09-13T07:29:23.880Z,5.03
2022-09-13T07:31:53.303Z,5.03
2022-09-13T07:34:23.536Z,8.20
2022-09-13T07:36:52.735Z,3.38
2022-09-13T07:39:22.703Z,4.32
2022-09-13T07:41:54.708Z,4.43
2022-09-13T07:44:23.157Z,4.85
2022-09-13T07:46:52.933Z,8.57
2022-09-13T07:49:29.242Z,8.27
2022-09-13T07:51:56.839Z,4.43
2022-09-13T07:54:24.271Z,4.47
2022-09-13T07:56:56.531Z,4.95
2022-09-13T07:59:27.011Z,4.40
2022-09-13T08:02:12.902Z,8.93
2022-09-13T08:04:40.818Z,6.25
2022-09-13T08:07:08.832Z,14.85
2022-09-13T08:09:36.358Z,7.20
2022-09-13T08:12:04.109Z,8.27
2022-09-13T08:14:31.589Z,7.70
2022-09-13T08:16:59.124Z,7.25
2022-09-13T08:19:27.192Z,9.35
2022-09-13T08:21:54.781Z,4.93
2022-09-13T08:24:22.512Z,5.32
2022-09-13T08:26:52.208Z,14.18
2022-09-13T08:29:19.993Z,10.55
2022-09-13T08:31:47.694Z,7.90
2022-09-13T08:34:16.656Z,7.57
2022-09-13T08:36:44.610Z,6.03
2022-09-13T08:39:14.066Z,5.70
2022-09-13T08:41:46.336Z,4.78
2022-09-13T08:44:30.233Z,7.47
2022-09-13T08:47:31.896Z,5.18
2022-09-13T08:50:10.117Z,5.93
2022-09-13T08:52:49.211Z,3.13
2022-09-13T08:55:35.214Z,5.68
2022-09-13T08:58:28.160Z,5.72
2022-09-13T09:01:06.775Z,5.38
2022-09-13T09:03:52.561Z,3.25
2022-09-13T09:06:22.806Z,5.22
2022-09-13T09:08:58.225Z,5.72
2022-09-13T09:11:35.698Z,2.80
2022-09-13T09:14:26.014Z,5.07
2022-09-13T09:17:04.538Z,5.28
2022-09-13T09:19:47.988Z,4.88
2022-09-13T09:22:22.121Z,3.50
2022-09-13T09:24:54.502Z,5.75
2022-09-13T09:27:22.644Z,6.20
2022-09-13T09:29:55.471Z,4.47
2022-09-13T09:32:37.515Z,3.28
2022-09-13T09:35:23.688Z,4.85
2022-09-13T09:38:21.944Z,5.53
2022-09-13T09:40:49.814Z,4.85
2022-09-13T09:43:31.276Z,3.20
2022-09-13T09:45:59.632Z,3.15
2022-09-13T09:48:35.391Z,3.35
2022-09-13T09:51:05.115Z,3.53
2022-09-13T09:53:37.275Z,8.07
2022-09-13T09:56:23.904Z,6.97
2022-09-13T09:58:53.307Z,4.90
2022-09-13T10:01:27.520Z,3.08
2022-09-13T10:04:12.837Z,5.57
2022-09-13T10:06:42.362Z,4.50
2022-09-13T10:09:21.649Z,6.07
2022-09-13T10:11:59.253Z,5.40
2022-09-13T10:14:33.258Z,5.57
2022-09-13T10:17:05.543Z,5.28
2022-09-13T10:19:33.731Z,4.47
2022-09-13T10:22:10.443Z,6.82
2022-09-13T10:24:38.106Z,2.58
2022-09-13T10:27:17.386Z,5.20
2022-09-13T10:29:51.059Z,5.55
2022-09-13T10:32:19.936Z,4.18
2022-09-13T10:34:49.428Z,4.80
2022-09-13T10:37:24.887Z,5.72
2022-09-13T10:40:04.053Z,7.57
2022-09-13T10:42:31.996Z,3.42
2022-09-13T10:44:59.799Z,7.22
2022-09-13T10:48:03.908Z,6.15
2022-09-13T10:50:31.646Z,5.72
2022-09-13T10:53:00.260Z,10.27
2022-09-13T10:55:35.279Z,6.15
2022-09-13T10:58:02.658Z,13.50
2022-09-13T11:00:39.737Z,9.35
2022-09-13T11:03:41.031Z,3.95
2022-09-13T11:06:27.365Z,5.00
2022-09-13T11:09:07.402Z,5.22
2022-09-13T11:12:00.385Z,5.22
2022-09-13T11:14:37.737Z,6.43
2022-09-13T11:17:27.135Z,6.15
2022-09-13T11:20:19.613Z,10.80
2022-09-13T11:23:23.877Z,5.75
2022-09-13T11:26:05.950Z,6.22
2022-09-13T11:28:40.366Z,7.43
2022-09-13T11:31:28.364Z,3.90
2022-09-13T11:34:22.428Z,10.23
2022-09-13T11:37:43.403Z,9.55
2022-09-13T11:40:35.238Z,7.55
2022-09-13T11:43:09.854Z,9.88
2022-09-13T11:46:11.598Z,6.90
2022-09-13T11:48:44.839Z,4.40
2022-09-13T11:51:51.263Z,5.63
2022-09-13T11:54:37.466Z,7.25
2022-09-13T11:57:11.533Z,4.72
2022-09-13T11:59:57.713Z,3.45
2022-09-13T12:02:43.995Z,8.65
2022-09-13T12:05:23.866Z,6.95
2022-09-13T12:08:13.983Z,6.80
2022-09-13T12:11:16.115Z,5.88
2022-09-13T12:13:54.217Z,4.20
2022-09-13T12:16:41.963Z,9.07
2022-09-13T12:19:23.728Z,6.90
2022-09-13T12:21:52.399Z,5.28
2022-09-13T12:24:29.956Z,7.10
2022-09-13T12:26:57.619Z,7.38
2022-09-13T12:29:32.080Z,6.43
2022-09-13T12:32:07.204Z,8.05
2022-09-13T12:34:59.046Z,5.18
2022-09-13T12:37:58.954Z,7.53
2022-09-13T12:40:55.103Z,7.80
2022-09-13T12:43:39.913Z,5.50
2022-09-13T12:46:44.886Z,5.88
2022-09-13T12:49:46.903Z,8.82
2022-09-13T12:52:49.956Z,7.95
2022-09-13T12:55:45.510Z,4.25
2022-09-13T12:58:26.593Z,7.97
2022-09-13T13:01:16.117Z,9.13
2022-09-13T13:03:54.847Z,8.23
2022-09-13T13:06:26.250Z,5.82
2022-09-13T13:08:56.440Z,5.22
2022-09-13T13:11:31.365Z,6.32
2022-09-13T13:14:02.421Z,4.13
2022-09-13T13:16:34.307Z,5.50
2022-09-13T13:19:06.573Z,5.03
2022-09-13T13:21:36.667Z,6.63
2022-09-13T13:26:59.488Z,6.57
2022-09-13T13:29:32.023Z,7.88
2022-09-13T13:32:07.681Z,8.10
2022-09-13T13:34:41.552Z,5.32
2022-09-13T13:37:08.923Z,4.35
2022-09-13T13:39:36.369Z,9.43
2022-09-13T13:42:31.658Z,7.70
2022-09-13T13:45:02.093Z,5.88
2022-09-13T13:47:29.403Z,6.95
2022-09-13T13:50:17.403Z,7.93
2022-09-13T13:52:47.860Z,6.75
2022-09-13T13:55:30.840Z,7.55
2022-09-13T13:58:23.121Z,6.20
2022-09-13T14:00:53.395Z,9.00
2022-09-13T14:03:49.646Z,8.52
2022-09-13T14:06:32.355Z,8.32
2022-09-13T14:09:05.711Z,8.95
2022-09-13T14:11:54.399Z,6.78
2022-09-13T14:17:34.485Z,7.32
2022-09-13T14:20:08.598Z,4.78
2022-09-13T14:22:36.767Z,4.45
2022-09-13T14:25:23.875Z,7.80
2022-09-13T14:27:56.978Z,6.18
2022-09-13T14:30:35.721Z,6.22
2022-09-13T14:33:06.102Z,4.07
2022-09-13T14:35:41.013Z,8.20
2022-09-13T14:38:18.865Z,2.97
2022-09-13T14:40:51.202Z,4.38
2022-09-13T14:43:22.889Z,5.60
2022-09-13T14:46:14.344Z,7.85
2022-09-13T14:48:53.854Z,7.10
2022-09-13T14:51:30.188Z,4.60
2022-09-13T14:54:21.800Z,6.78
2022-09-13T14:56:53.533Z,3.63
2022-09-13T14:59:29.597Z,4.82
2022-09-13T15:02:02.702Z,9.73
2022-09-13T15:04:30.993Z,29.00
2022-09-13T15:07:10.498Z,9.35
2022-09-13T15:09:38.679Z,2.20
2022-09-13T15:12:21.015Z,1.88
2022-09-13T15:14:48.681Z,3.42
2022-09-13T15:17:17.117Z,1.38
2022-09-13T15:19:52.862Z,2.70
2022-09-13T15:22:26.356Z,4.93
2022-09-13T15:24:56.399Z,3.38
2022-09-13T15:29:59.272Z,2.90
2022-09-13T15:32:39.832Z,2.72
2022-09-13T15:35:30.244Z,1.92
2022-09-13T15:38:10.886Z,39.70
2022-09-13T15:40:47.467Z,43.58
2022-09-13T15:43:15.129Z,46.08
2022-09-13T15:45:42.971Z,69.47
2022-09-13T15:48:25.107Z,48.03
2022-09-13T15:51:05.193Z,66.40
2022-09-13T15:53:32.984Z,79.97
2022-09-13T15:56:01.887Z,75.53
2022-09-13T15:58:30.256Z,79.22
2022-09-13T16:00:57.987Z,82.28
2022-09-13T16:03:25.466Z,84.43
2022-09-13T16:05:53.998Z,88.88
2022-09-13T16:08:21.511Z,89.07
2022-09-13T16:10:48.977Z,84.65
2022-09-13T16:13:16.534Z,89.47
2022-09-13T16:15:46.398Z,68.78
2022-09-13T16:18:16.847Z,47.72
2022-09-13T16:20:45.011Z,49.95
2022-09-13T16:23:12.715Z,51.75
2022-09-13T16:25:40.373Z,46.63
2022-09-13T16:28:08.809Z,50.15
2022-09-13T16:30:36.924Z,40.70
2022-09-13T16:33:04.565Z,35.63
2022-09-13T16:35:33.009Z,37.17
2022-09-13T16:38:00.444Z,8.48
2022-09-13T16:40:28.222Z,38.88
2022-09-13T16:42:55.976Z,30.30
2022-09-13T16:45:23.830Z,2.00
2022-09-13T16:47:51.574Z,1.83
2022-09-13T16:50:19.867Z,5.53
2022-09-13T16:52:47.450Z,5.78
2022-09-13T16:55:15.008Z,28.10
2022-09-13T16:57:44.329Z,39.17
2022-09-13T17:00:12.632Z,19.45
2022-09-13T17:02:40.262Z,21.52
2022-09-13T17:05:08.579Z,37.38
2022-09-13T17:07:37.215Z,21.80
2022-09-13T17:10:07.129Z,30.48
2022-09-13T17:12:35.122Z,10.43
2022-09-13T17:15:02.440Z,21.33
2022-09-13T17:17:36.100Z,27.58
2022-09-13T17:20:10.650Z,3.65
2022-09-13T17:22:38.426Z,3.13
2022-09-13T17:25:07.964Z,4.32
2022-09-13T17:27:35.791Z,9.85
2022-09-13T17:30:05.157Z,2.55
2022-09-13T17:32:32.809Z,2.38
2022-09-13T17:35:00.411Z,3.03
2022-09-13T17:37:28.035Z,1.10
2022-09-13T17:39:55.524Z,2.00
2022-09-13T17:42:23.573Z,3.50
2022-09-13T17:44:51.250Z,2.83
2022-09-13T17:47:18.663Z,3.80
2022-09-13T17:49:47.797Z,3.20
2022-09-13T17:52:15.431Z,2.30
2022-09-13T17:54:42.990Z,1.35
2022-09-13T17:57:12.049Z,1.85
2022-09-13T17:59:39.802Z,0.50
2022-09-13T18:02:08.779Z,1.85
2022-09-13T18:04:36.382Z,2.47
2022-09-13T18:07:03.839Z,1.20
2022-09-13T18:09:31.301Z,1.75
2022-09-13T18:11:58.757Z,0.93
2022-09-13T18:14:27.756Z,1.00
2022-09-13T18:16:58.011Z,1.52
2022-09-13T18:19:44.925Z,1.00
2022-09-13T18:22:14.634Z,1.27
2022-09-13T18:24:43.319Z,0.52
2022-09-13T18:27:10.779Z,0.70
2022-09-13T18:29:38.251Z,0.85
2022-09-13T18:32:05.915Z,0.80
2022-09-13T18:34:33.531Z,0.57
2022-09-13T18:37:01.016Z,3.15
2022-09-13T18:39:28.248Z,0.95
2022-09-13T18:41:55.831Z,0.52
2022-09-13T18:44:23.189Z,1.02
2022-09-13T18:46:53.042Z,0.85
2022-09-13T18:49:20.567Z,0.88
2022-09-13T18:51:49.540Z,1.20
2022-09-13T18:54:18.621Z,1.25
2022-09-13T18:56:47.363Z,1.38
2022-09-13T18:59:14.972Z,0.85
2022-09-13T19:01:43.940Z,2.67
2022-09-13T19:04:12.465Z,5.40
2022-09-13T19:06:46.409Z,1.88
2022-09-13T19:09:14.618Z,1.73
2022-09-13T19:11:48.501Z,0.90
2022-09-13T19:14:27.846Z,0.70
2022-09-13T19:17:00.985Z,1.63
2022-09-13T19:19:30.391Z,0.63
2022-09-13T19:21:57.768Z,0.63
2022-09-13T19:24:25.809Z,0.40
2022-09-13T19:26:53.812Z,0.60
2022-09-13T19:29:22.960Z,0.38
2022-09-13T19:31:52.638Z,0.55
2022-09-13T19:34:22.066Z,0.47
2022-09-13T19:36:52.574Z,0.50
2022-09-13T19:39:20.080Z,0.70
2022-09-13T19:41:47.834Z,0.60
2022-09-13T19:44:15.584Z,1.15
2022-09-13T19:46:43.706Z,0.95
2022-09-13T19:49:16.122Z,0.38
2022-09-13T19:51:47.591Z,0.22
2022-09-13T19:54:19.177Z,0.50
2022-09-13T19:56:46.791Z,0.70
2022-09-13T19:59:16.273Z,0.40
2022-09-13T20:01:45.172Z,0.60
2022-09-13T20:04:23.755Z,0.63
2022-09-13T20:06:52.109Z,0.73
2022-09-13T20:09:21.111Z,0.60
2022-09-13T20:11:49.059Z,0.25
2022-09-13T20:14:18.931Z,1.13
2022-09-13T20:16:47.745Z,0.60
2022-09-13T20:22:10.978Z,1.63
2022-09-13T20:24:38.712Z,0.38
2022-09-13T20:27:06.321Z,0.90
2022-09-13T20:29:33.623Z,0.57
2022-09-13T20:32:02.308Z,0.60
2022-09-13T20:34:29.630Z,0.38
2022-09-13T20:36:57.330Z,0.60
2022-09-13T20:39:24.999Z,0.60
2022-09-13T20:41:54.023Z,0.50
2022-09-13T20:44:21.551Z,0.30
2022-09-13T20:46:49.143Z,0.50
2022-09-13T20:49:16.861Z,0.40
2022-09-13T20:51:46.068Z,2.53
2022-09-13T20:54:13.800Z,0.85
2022-09-13T20:56:41.283Z,0.90
2022-09-13T20:59:08.935Z,0.43
2022-09-13T21:01:36.769Z,2.70
2022-09-13T21:04:04.562Z,0.77
2022-09-13T21:06:37.173Z,1.05
2022-09-13T21:09:07.942Z,0.50
2022-09-13T21:11:36.936Z,1.10
2022-09-13T21:14:06.609Z,0.55
2022-09-13T21:16:36.669Z,1.90
2022-09-13T21:21:34.624Z,1.00
2022-09-13T21:24:08.939Z,0.32
2022-09-13T21:26:37.609Z,4.78
2022-09-13T21:29:05.317Z,0.50
2022-09-13T21:31:34.110Z,1.20
2022-09-13T21:34:04.292Z,0.63
2022-09-13T21:39:01.062Z,0.30
2022-09-13T21:41:28.695Z,0.88
2022-09-13T21:43:56.536Z,1.33
2022-09-13T21:46:29.226Z,0.40
2022-09-13T21:48:58.506Z,0.40
2022-09-13T21:51:33.675Z,1.38
2022-09-13T21:54:02.258Z,0.47
2022-09-13T21:56:31.725Z,0.80
2022-09-13T21:59:04.212Z,1.10
2022-09-13T22:01:34.072Z,0.70
2022-09-13T22:04:01.780Z,1.27
2022-09-13T22:06:33.555Z,1.95
2022-09-13T22:09:07.483Z,0.68
2022-09-13T22:11:38.711Z,0.95
2022-09-13T22:14:07.302Z,1.63
2022-09-13T22:16:40.509Z,1.70
2022-09-13T22:19:15.180Z,0.95
2022-09-13T22:21:44.911Z,1.02
2022-09-13T22:24:20.514Z,0.95
2022-09-13T22:26:49.500Z,0.90
2022-09-13T22:29:17.633Z,0.85
2022-09-13T22:31:48.343Z,0.55
2022-09-13T22:34:18.463Z,0.80
2022-09-13T22:36:46.126Z,0.65
2022-09-13T22:39:14.862Z,0.43
2022-09-13T22:41:42.697Z,1.30
2022-09-13T22:44:10.134Z,0.63
2022-09-13T22:46:40.934Z,0.85
2022-09-13T22:49:11.657Z,0.45
2022-09-13T22:51:39.072Z,1.38
2022-09-13T22:54:07.952Z,0.43
2022-09-13T22:56:36.569Z,0.85
2022-09-13T22:59:11.793Z,0.85
2022-09-13T23:01:39.625Z,1.45
2022-09-13T23:04:07.388Z,0.20
2022-09-13T23:06:35.509Z,0.80
2022-09-13T23:09:06.554Z,0.45
2022-09-13T23:11:38.678Z,0.80
2022-09-13T23:14:09.949Z,0.50
2022-09-13T23:16:40.138Z,0.93
2022-09-13T23:19:08.365Z,0.30
2022-09-13T23:21:37.199Z,0.85
2022-09-13T23:24:06.528Z,0.35
2022-09-13T23:26:34.776Z,1.23
2022-09-13T23:29:06.577Z,1.02
2022-09-13T23:31:36.199Z,1.67
2022-09-13T23:34:06.505Z,0.88
2022-09-13T23:36:37.052Z,1.77
2022-09-13T23:39:06.881Z,0.47
2022-09-13T23:41:34.900Z,1.48
2022-09-13T23:44:03.155Z,0.40
2022-09-13T23:46:31.030Z,0.60
2022-09-13T23:48:58.165Z,0.63
2022-09-13T23:51:29.543Z,1.17
2022-09-13T23:53:57.948Z,0.82
2022-09-13T23:56:26.521Z,0.73
2022-09-13T23:58:55.954Z,0.82
